Time;durP1;ratioP1;P1;durP2;ratioP2;P2;SDS_P1;SDS_P2;PMS_P1;PMS_P2;Temp;Humidity;BMP_temperature;BMP_pressure;BME280_temperature;BME280_humidity;BME280_pressure;Samples;Min_cycle;Max_cycle;Signal;HPM_P1;HPM_P2
2023/06/05 08:03:19;;;;;;;;;;;;;;;8.61;100.00;99772.22;6155482;23;19924;-89
2023/06/05 08:05:44;;;;;;;;;;;;;;;8.61;100.00;99779.28;6149795;23;19924;-91
2023/06/05 08:08:09;;;;;;;;;;;;;;;8.64;100.00;99773.91;6154230;23;20361;-90
2023/06/05 08:11:05;;;;;;;;;;;;;;;8.59;100.00;99768.78;6155490;23;19913;-92
2023/06/05 08:13:39;;;;;;;;;;;;;;;8.62;100.00;99767.81;6153518;23;20276;-88
2023/06/05 08:16:49;;;;;;;;;;;;;;;;;;;;;
2023/06/05 08:19:23;;;;;;;;;;;;;;;8.63;100.00;99764.25;6157037;23;19984;-91
2023/06/05 08:22:03;;;;;;;;;;;;;;;;;;;;;
2023/06/05 08:24:39;;;;;;;;;;;;;;;;;;;;;
2023/06/05 08:27:20;;;;;;;;;;;;;;;;;;;;;
2023/06/05 08:30:11;;;;;;;;;;;;;;;8.68;100.00;99757.91;6159097;23;19957;-92
2023/06/05 08:32:39;;;;;;;;;;;;;;;8.71;100.00;99762.19;6139564;23;20139;-92
2023/06/05 08:35:05;;;;;;;;;;;;;;;8.70;100.00;99755.19;6155143;23;19944;-92
2023/06/05 08:38:01;;;;;;;;;;;;;;;8.68;100.00;99757.91;6130109;23;20651;-92
2023/06/05 08:40:40;;;;;;;;;;;;;;;8.73;100.00;99757.72;6155096;23;19913;-91
2023/06/05 08:43:24;;;;;;;;;;;;;;;;;;;;;
2023/06/05 08:49:06;;;;;;;;;;;;;;;;;;;;;
2023/06/05 08:55:01;;;;;;;;;;;;;;;8.82;100.00;99754.78;6076183;23;19960;-91
2023/06/05 08:57:44;;;;;;;;;;;;;;;8.84;100.00;99742.34;6105363;23;19912;-91
2023/06/05 09:03:45;;;;;;;;;;;;;;;;;;;;;
2023/06/05 09:06:42;;;;;;;;;;;;;;;;;;;;;
2023/06/05 09:09:07;;;;;;;;;;;;;;;6.56;100.00;99744.25;6116500;23;20543;-90
2023/06/05 09:11:45;;;;;;;;;;;;;;;;;;;;;
2023/06/05 09:14:20;;;;;;;;;;;;;;;;;;;;;
2023/06/05 09:16:56;;;;;;;;;;;;;;;6.35;100.00;99743.91;6185126;23;20085;-88
2023/06/05 09:19:27;;;;;;;;;;;;;;;6.30;100.00;99737.03;6158929;23;19916;-88
2023/06/05 09:21:56;;;;;;;;;;;;;;;6.16;100.00;99743.53;6184356;23;19912;-89
2023/06/05 09:24:25;;;;;;;;;;;;;;;6.19;100.00;99739.97;6184945;23;19916;-90
2023/06/05 09:27:18;;;;;;;;;;;;;;;6.28;100.00;99742.34;6158250;23;19919;-91
2023/06/05 09:29:49;;;;;;;;;;;;;;;6.09;100.00;99736.66;6182925;23;19919;-90
2023/06/05 09:32:18;;;;;;;;;;;;;;;6.05;100.00;99732.41;6184499;23;20413;-90
2023/06/05 09:34:45;;;;;;;;;;;;;;;6.02;100.00;99727.22;6159885;23;19960;-90
2023/06/05 09:37:19;;;;;;;;;;;;;;;5.94;100.00;99735.25;6186288;23;20011;-88
2023/06/05 09:39:49;;;;;;;;;;;;;;;5.94;100.00;99737.03;6186393;23;20292;-90
2023/06/05 09:42:27;;;;;;;;;;;;;;;;;;;;;
2023/06/05 09:45:04;;;;;;;;;;;;;;;5.98;100.00;99739.59;6184696;23;20419;-89
2023/06/05 09:47:31;;;;;;;;;;;;;;;5.82;100.00;99735.56;6186208;23;19925;-90
2023/06/05 09:49:59;;;;;;;;;;;;;;;5.82;100.00;99733.81;6159605;23;19916;-90
2023/06/05 09:52:34;;;;;;;;;;;;;;;;;;;;;
2023/06/05 09:55:03;;;;;;;;;;;;;;;5.71;100.00;99729.69;6186627;23;19987;-88
2023/06/05 09:57:32;;;;;;;;;;;;;;;5.80;100.00;99727.69;6186239;23;19912;-88
2023/06/05 10:00:06;;;;;;;;;;;;;;;5.74;100.00;99737.50;6184879;23;19917;-89
2023/06/05 10:02:32;;;;;;;;;;;;;;;5.80;100.00;99726.84;6186205;23;20375;-87
2023/06/05 10:05:10;;;;;;;;;;;;;;;;;;;;;
2023/06/05 10:07:39;;;;;;;;;;;;;;;5.88;100.00;99719.63;6186144;23;20048;-87
2023/06/05 10:10:13;;;;;;;;;;;;;;;5.77;100.00;99713.78;6159470;23;19927;-89
2023/06/05 10:12:39;;;;;;;;;;;;;;;5.79;100.00;99719.84;6185842;23;19920;-88
2023/06/05 10:15:08;;;;;;;;;;;;;;;5.84;100.00;99712.75;6184228;23;19909;-92
2023/06/05 10:17:33;;;;;;;;;;;;;;;5.69;100.00;99713.09;6159661;23;19919;-88
2023/06/05 10:20:08;;;;;;;;;;;;;;;5.67;100.00;99705.25;6159611;23;19913;-88
2023/06/05 10:22:36;;;;;;;;;;;;;;;5.73;100.00;99714.78;6186014;23;19919;-90
2023/06/05 10:25:06;;;;;;;;;;;;;;;5.67;100.00;99710.50;6159275;23;19916;-87
2023/06/05 10:27:49;;;;;;;;;;;;;;;5.62;100.00;99702.72;6185718;23;19913;-89
2023/06/05 10:30:38;;;;;;;;;;;;;;;5.60;100.00;99708.91;6184037;23;19913;-89
2023/06/05 10:33:30;;;;;;;;;;;;;;;5.64;100.00;99711.44;6159269;23;20231;-92
2023/06/05 10:36:24;;;;;;;;;;;;;;;5.56;100.00;99707.28;6185720;23;19915;-87
2023/06/05 10:38:49;;;;;;;;;;;;;;;5.63;100.00;99709.72;6184873;23;19916;-90
2023/06/05 10:41:30;;;;;;;;;;;;;;;5.50;100.00;99705.63;6159628;23;19908;-90
2023/06/05 10:44:22;;;;;;;;;;;;;;;5.48;100.00;99699.56;6157816;23;19920;-88
2023/06/05 10:46:50;;;;;;;;;;;;;;;5.52;100.00;99709.13;6182867;23;20030;-87
2023/06/05 10:49:26;;;;;;;;;;;;;;;5.56;100.00;99708.13;6159370;23;19952;-89
2023/06/05 10:52:04;;;;;;;;;;;;;;;;;;;;;
2023/06/05 10:54:30;;;;;;;;;;;;;;;5.56;100.00;99699.38;6185974;23;19983;-90
2023/06/05 10:57:00;;;;;;;;;;;;;;;5.44;100.00;99695.25;6159303;23;20281;-87
2023/06/05 10:59:33;;;;;;;;;;;;;;;5.44;100.00;99692.63;6183939;23;19959;-92
2023/06/05 11:08:11;;;;;;;;;;;;;;;5.43;100.00;99691.78;6152440;23;19992;-88
2023/06/05 11:11:06;;;;;;;;;;;;;;;;;;;;;
2023/06/05 11:13:50;;;;;;;;;;;;;;;5.45;100.00;99694.38;6184268;23;20024;-88
2023/06/05 11:16:37;;;;;;;;;;;;;;;;;;;;;
2023/06/05 11:19:25;;;;;;;;;;;;;;;;;;;;;
2023/06/05 11:22:12;;;;;;;;;;;;;;;5.33;100.00;99692.03;6185481;23;20003;-91
2023/06/05 11:24:40;;;;;;;;;;;;;;;5.32;100.00;99687.69;6159005;23;20313;-92
2023/06/05 11:27:36;;;;;;;;;;;;;;;;;;;;;
2023/06/05 11:33:40;;;;;;;;;;;;;;;5.40;100.00;99683.13;6132274;23;20217;-90
2023/06/05 11:36:15;;;;;;;;;;;;;;;5.39;100.00;99678.75;6158530;23;19916;-89
2023/06/05 11:39:03;;;;;;;;;;;;;;;5.49;100.00;99684.66;6159033;23;19986;-88
2023/06/05 11:41:31;;;;;;;;;;;;;;;5.45;100.00;99675.97;6135848;23;19920;-89
2023/06/05 11:44:17;;;;;;;;;;;;;;;5.34;100.00;99676.22;6183477;23;19924;-90
2023/06/05 11:46:44;;;;;;;;;;;;;;;5.27;100.00;99677.28;6157291;23;20402;-88
2023/06/05 11:49:49;;;;;;;;;;;;;;;;;;;;;
2023/06/05 11:55:32;;;;;;;;;;;;;;;5.29;100.00;99678.09;6184727;23;20218;-89
2023/06/05 11:58:20;;;;;;;;;;;;;;;5.27;100.00;99670.25;6185304;23;19916;-89
2023/06/05 12:00:47;;;;;;;;;;;;;;;5.31;100.00;99676.28;6184739;23;19920;-90
2023/06/05 12:03:28;;;;;;;;;;;;;;;5.31;100.00;99673.66;6158790;23;19920;-93
2023/06/05 12:08:55;;;;;;;;;;;;;;;5.24;100.00;99679.97;6123882;23;19912;-90
2023/06/05 12:11:22;;;;;;;;;;;;;;;5.93;100.00;99673.03;6184765;23;19916;-90
2023/06/05 12:14:04;;;;;;;;;;;;;;;6.44;100.00;99665.59;6183234;23;19955;-91
2023/06/05 12:16:42;;;;;;;;;;;;;;;6.75;100.00;99659.47;6158308;23;19919;-91
2023/06/05 12:19:44;;;;;;;;;;;;;;;;;;;;;
2023/06/05 12:22:13;;;;;;;;;;;;;;;7.11;100.00;99661.91;6184969;23;20007;-90
2023/06/05 12:24:48;;;;;;;;;;;;;;;;;;;;;
2023/06/05 12:27:16;;;;;;;;;;;;;;;7.32;100.00;99661.22;6184667;23;19995;-89
2023/06/05 12:29:52;;;;;;;;;;;;;;;7.39;100.00;99661.94;6156932;23;19916;-88
2023/06/05 12:32:34;;;;;;;;;;;;;;;7.55;100.00;99663.16;6158864;23;19936;-89
2023/06/05 12:35:02;;;;;;;;;;;;;;;7.58;100.00;99649.88;6184722;23;20638;-88
2023/06/05 12:37:41;;;;;;;;;;;;;;;7.69;100.00;99654.78;6184710;23;20354;-89
2023/06/05 12:40:10;;;;;;;;;;;;;;;7.78;100.00;99659.75;6158513;23;20237;-89
2023/06/05 12:42:44;;;;;;;;;;;;;;;7.77;100.00;99652.75;6158685;23;19919;-88
2023/06/05 12:45:30;;;;;;;;;;;;;;;;;;;;;
2023/06/05 12:48:05;;;;;;;;;;;;;;;7.84;100.00;99644.66;6184713;23;19999;-88
2023/06/05 12:50:41;;;;;;;;;;;;;;;7.90;100.00;99649.72;6158133;23;19923;-89
2023/06/05 12:53:29;;;;;;;;;;;;;;;;;;;;;
2023/06/05 12:56:34;;;;;;;;;;;;;;;;;;;;;
2023/06/05 12:59:20;;;;;;;;;;;;;;;8.04;100.00;99649.22;6173599;23;19912;-89
2023/06/05 13:02:16;;;;;;;;;;;;;;;;;;;;;
2023/06/05 13:18:55;;;;;;;;;;;;;;;8.34;100.00;99621.75;6009207;23;20012;-91
2023/06/05 13:21:39;;;;;;;;;;;;;;;;;;;;;
2023/06/05 13:27:23;;;;;;;;;;;;;;;;;;;;;
2023/06/05 13:33:04;;;;;;;;;;;;;;;;;;;;;
2023/06/05 13:35:37;;;;;;;;;;;;;;;;;;;;;
2023/06/05 13:38:26;;;;;;;;;;;;;;;8.62;100.00;99617.28;6133287;23;19995;-88
2023/06/05 13:43:58;;;;;;;;;;;;;;;;;;;;;
2023/06/05 13:46:57;;;;;;;;;;;;;;;;;;;;;
2023/06/05 13:49:58;;;;;;;;;;;;;;;;;;;;;
2023/06/05 13:52:49;;;;;;;;;;;;;;;8.73;100.00;99623.00;6156301;23;19991;-91
2023/06/05 13:55:48;;;;;;;;;;;;;;;8.72;100.00;99597.50;6156277;23;20296;-90
2023/06/05 13:58:21;;;;;;;;;;;;;;;8.80;100.00;99611.28;6126394;23;19947;-89
2023/06/05 14:00:49;;;;;;;;;;;;;;;8.90;100.00;99610.00;6156621;23;19917;-88
2023/06/05 14:03:14;;;;;;;;;;;;;;;8.90;100.00;99604.72;6130073;23;19908;-91
2023/06/05 14:05:40;;;;;;;;;;;;;;;8.90;100.00;99603.84;6130418;23;20209;-90
2023/06/05 14:08:14;;;;;;;;;;;;;;;8.91;100.00;99603.78;6130320;23;19916;-90
2023/06/05 14:14:25;;;;;;;;;;;;;;;;;;;;;
2023/06/05 14:20:25;;;;;;;;;;;;;;;;;;;;;
2023/06/05 14:26:29;;;;;;;;;;;;;;;6.92;100.00;99583.44;6095798;23;20226;-90
2023/06/05 14:29:29;;;;;;;;;;;;;;;6.81;100.00;99586.44;6151248;23;19995;-92
2023/06/05 14:32:46;;;;;;;;;;;;;;;;;;;;;
2023/06/05 14:35:15;;;;;;;;;;;;;;;;;;;;;
2023/06/05 14:38:12;;;;;;;;;;;;;;;6.50;100.00;99587.31;6035113;23;20004;-92
2023/06/05 14:41:04;;;;;;;;;;;;;;;;;;;;;
2023/06/05 14:44:00;;;;;;;;;;;;;;;;;;;;;
2023/06/05 14:46:28;;;;;;;;;;;;;;;6.41;100.00;99577.06;6065786;23;20000;-86
2023/06/05 14:57:53;;;;;;;;;;;;;;;6.13;100.00;99574.38;5993971;23;20399;-88
2023/06/05 15:00:31;;;;;;;;;;;;;;;;;;;;;
2023/06/05 15:03:18;;;;;;;;;;;;;;;6.05;100.00;99568.44;5998776;23;20005;-89
2023/06/05 15:05:44;;;;;;;;;;;;;;;5.99;100.00;99559.81;6042575;23;19923;-85
2023/06/05 15:08:37;;;;;;;;;;;;;;;;;;;;;
2023/06/05 15:11:33;;;;;;;;;;;;;;;;;;;;;
2023/06/05 15:13:51;;;;;;;;;;;;;;;5.96;100.00;99565.16;6145103;23;20337;-90
2023/06/05 15:16:39;;;;;;;;;;;;;;;5.97;100.00;99560.78;6129535;23;19934;-89
2023/06/05 15:19:10;;;;;;;;;;;;;;;6.06;100.00;99564.91;6155829;23;19916;-93
2023/06/05 15:22:08;;;;;;;;;;;;;;;;;;;;;
2023/06/05 15:25:25;;;;;;;;;;;;;;;;;;;;;
2023/06/05 15:45:57;;;;;;;;;;;;;;;;;;;;;
2023/06/05 16:07:31;;;;;;;;;;;;;;;5.72;100.00;99539.50;5933077;24;19930;-90
2023/06/05 16:13:42;;;;;;;;;;;;;;;5.65;100.00;99533.56;5896741;24;19951;-92
2023/06/05 16:19:02;;;;;;;;;;;;;;;;;;;;;
2023/06/05 16:21:50;;;;;;;;;;;;;;;;;;;;;
2023/06/05 16:24:46;;;;;;;;;;;;;;;;;;;;;
2023/06/05 16:39:19;;;;;;;;;;;;;;;5.64;100.00;99532.69;6009531;23;19914;-92
2023/06/05 16:45:39;;;;;;;;;;;;;;;;;;;;;
2023/06/05 16:51:38;;;;;;;;;;;;;;;;;;;;;
2023/06/05 16:57:31;;;;;;;;;;;;;;;5.56;100.00;99541.69;6031697;23;19914;-90
2023/06/05 17:03:41;;;;;;;;;;;;;;;;;;;;;
2023/06/05 17:12:34;;;;;;;;;;;;;;;;;;;;;
2023/06/05 17:38:19;;;;;;;;;;;;;;;;;;;;;
2023/06/05 17:41:21;;;;;;;;;;;;;;;;;;;;;
2023/06/05 17:44:26;;;;;;;;;;;;;;;;;;;;;
2023/06/05 17:50:17;;;;;;;;;;;;;;;;;;;;;
2023/06/05 17:59:30;;;;;;;;;;;;;;;;;;;;;
2023/06/05 18:05:37;;;;;;;;;;;;;;;5.44;100.00;99546.34;5925550;24;19915;-89
2023/06/05 18:13:33;;;;;;;;;;;;;;;5.37;100.00;99539.53;6125754;23;19921;-92
2023/06/05 18:25:45;;;;;;;;;;;;;;;5.33;100.00;99543.16;5921748;24;20006;-91
2023/06/05 18:28:31;;;;;;;;;;;;;;;;;;;;;
2023/06/05 18:34:36;;;;;;;;;;;;;;;;;;;;;
2023/06/05 18:37:40;;;;;;;;;;;;;;;;;;;;;
2023/06/05 18:40:09;;;;;;;;;;;;;;;5.23;100.00;99546.88;6083966;23;19995;-89
2023/06/05 18:43:12;;;;;;;;;;;;;;;5.26;100.00;99547.69;6101418;23;19913;-94
2023/06/05 18:46:31;;;;;;;;;;;;;;;;;;;;;
2023/06/05 18:52:33;;;;;;;;;;;;;;;5.23;100.00;99547.78;5953763;23;20264;-91
2023/06/05 19:13:36;;;;;;;;;;;;;;;5.20;100.00;99546.97;6163611;23;19924;-90
2023/06/05 19:23:29;;;;;;;;;;;;;;;5.25;100.00;99548.59;6011160;23;19914;-91
2023/06/05 19:27:49;;;;;;;;;;;;;;;5.20;100.00;99552.22;6156896;23;19945;-89
2023/06/05 20:14:41;;;;;;;;;;;;;;;7.77;100.00;99621.09;5826732;24;19970;-91
2023/06/05 20:20:31;;;;;;;;;;;;;;;;;;;;;
2023/06/05 20:23:32;;;;;;;;;;;;;;;;;;;;;
2023/06/05 20:29:19;;;;;;;;;;;;;;;;;;;;;
2023/06/05 20:35:21;;;;;;;;;;;;;;;;;;;;;
2023/06/05 20:47:16;;;;;;;;;;;;;;;8.14;100.00;99638.28;5685097;25;20299;-90
2023/06/05 20:49:42;;;;;;;;;;;;;;;8.16;100.00;99633.81;5689089;24;20293;-87
2023/06/05 20:52:23;;;;;;;;;;;;;;;8.16;100.00;99647.00;5918124;23;19926;-92
2023/06/05 20:54:51;;;;;;;;;;;;;;;8.20;100.00;99642.50;6007504;23;19989;-88
2023/06/05 20:57:20;;;;;;;;;;;;;;;8.20;100.00;99650.44;6008264;23;19918;-92
2023/06/05 21:06:09;;;;;;;;;;;;;;;;;;;;;
2023/06/05 21:15:15;;;;;;;;;;;;;;;8.31;100.00;99650.91;6120914;23;19948;-89
2023/06/05 21:21:16;;;;;;;;;;;;;;;;;;;;;
2023/06/05 21:23:44;;;;;;;;;;;;;;;8.35;100.00;99655.16;6035580;23;20000;-92
2023/06/05 21:26:32;;;;;;;;;;;;;;;8.37;100.00;99647.16;6011436;23;19918;-90
2023/06/05 21:29:25;;;;;;;;;;;;;;;8.36;100.00;99648.97;5922868;24;19953;-92
2023/06/05 21:32:02;;;;;;;;;;;;;;;8.39;100.00;99652.41;5929519;23;20017;-90
2023/06/05 21:34:43;;;;;;;;;;;;;;;8.41;100.00;99654.06;6037505;23;19966;-90
2023/06/05 21:37:28;;;;;;;;;;;;;;;8.43;100.00;99657.53;6037307;23;19921;-91
2023/06/05 21:43:21;;;;;;;;;;;;;;;;;;;;;
2023/06/05 21:46:06;;;;;;;;;;;;;;;;;;;;;
2023/06/05 21:52:12;;;;;;;;;;;;;;;;;;;;;
2023/06/05 21:54:45;;;;;;;;;;;;;;;8.56;100.00;99659.75;5950172;24;20412;-91
2023/06/05 21:57:31;;;;;;;;;;;;;;;;;;;;;
2023/06/05 22:00:20;;;;;;;;;;;;;;;;;;;;;
2023/06/05 22:02:53;;;;;;;;;;;;;;;8.61;100.00;99663.06;6127234;23;20000;-92
2023/06/05 22:05:28;;;;;;;;;;;;;;;8.59;100.00;99655.22;6126975;23;19913;-90
2023/06/05 22:11:27;;;;;;;;;;;;;;;8.66;100.00;99656.72;6127222;23;19948;-90
2023/06/05 22:13:56;;;;;;;;;;;;;;;8.67;100.00;99655.78;6099704;23;19913;-91
2023/06/05 22:16:37;;;;;;;;;;;;;;;;;;;;;
2023/06/05 22:19:41;;;;;;;;;;;;;;;8.71;100.00;99657.41;6127265;23;19996;-89
2023/06/05 22:22:28;;;;;;;;;;;;;;;;;;;;;
2023/06/05 22:25:29;;;;;;;;;;;;;;;;;;;;;
2023/06/05 22:27:58;;;;;;;;;;;;;;;8.76;100.00;99659.88;6122782;23;19995;-91
2023/06/05 22:30:52;;;;;;;;;;;;;;;8.75;100.00;99658.16;6125675;23;19916;-91
2023/06/05 22:33:30;;;;;;;;;;;;;;;8.79;100.00;99657.13;6123464;23;19992;-90
2023/06/05 22:36:06;;;;;;;;;;;;;;;8.80;100.00;99664.09;6126783;23;19909;-90
2023/06/05 22:38:42;;;;;;;;;;;;;;;8.82;100.00;99664.94;6100603;23;19920;-91
2023/06/05 22:41:10;;;;;;;;;;;;;;;8.83;100.00;99661.34;6126690;23;19999;-90
2023/06/05 22:43:37;;;;;;;;;;;;;;;8.87;100.00;99667.38;6100042;23;20253;-91
2023/06/05 22:46:12;;;;;;;;;;;;;;;8.87;100.00;99668.25;6126302;23;19913;-91
2023/06/05 22:48:40;;;;;;;;;;;;;;;8.33;100.00;99666.69;6126517;23;19944;-91
2023/06/05 22:51:14;;;;;;;;;;;;;;;7.41;100.00;99670.63;6126912;23;19919;-90
2023/06/05 22:54:18;;;;;;;;;;;;;;;;;;;;;
2023/06/05 22:57:05;;;;;;;;;;;;;;;;;;;;;
2023/06/05 23:06:00;;;;;;;;;;;;;;;;;;;;;
2023/06/05 23:08:48;;;;;;;;;;;;;;;6.62;100.00;99654.56;6036556;23;20315;-89
2023/06/05 23:11:50;;;;;;;;;;;;;;;;;;;;;
2023/06/05 23:17:43;;;;;;;;;;;;;;;;;;;;;
2023/06/05 23:29:50;;;;;;;;;;;;;;;6.17;100.00;99657.56;5948763;24;19975;-89
2023/06/05 23:32:45;;;;;;;;;;;;;;;;;;;;;
2023/06/05 23:35:52;;;;;;;;;;;;;;;6.11;100.00;99660.34;6027671;23;20064;-93
2023/06/05 23:41:22;;;;;;;;;;;;;;;6.02;100.00;99650.94;5979760;24;19957;-88
2023/06/05 23:44:13;;;;;;;;;;;;;;;6.00;100.00;99661.50;6025650;23;19917;-90
2023/06/05 23:46:50;;;;;;;;;;;;;;;5.97;100.00;99666.84;6029817;23;19918;-89
2023/06/05 23:53:12;;;;;;;;;;;;;;;;;;;;;
